Time;durP1;ratioP1;P1;durP2;ratioP2;P2;SDS_P1;SDS_P2;PMS_P1;PMS_P2;Temp;Humidity;BMP_temperature;BMP_pressure;BME280_temperature;BME280_humidity;BME280_pressure;Samples;Min_cycle;Max_cycle;Signal;HPM_P1;HPM_P2
2021/12/02 00:00:44;;;;;;;0.98;0.98;;;;;;;;;;5084466;28;20203;-69
2021/12/02 00:03:10;;;;;;;3.08;1.42;;;;;;;;;;5084996;28;20216;-69
2021/12/02 00:05:37;;;;;;;1.25;0.90;;;;;;;;;;5088054;28;20188;-69
2021/12/02 00:08:04;;;;;;;2.10;0.75;;;;;;;;;;5105682;28;20553;-69
2021/12/02 00:10:31;;;;;;;1.45;0.50;;;;;;;;;;5105223;28;20192;-69
2021/12/02 00:12:59;;;;;;;1.15;0.30;;;;;;;;;;5105334;28;20534;-69
2021/12/02 00:15:31;;;;;;;0.50;0.50;;;;;;;;;;5103786;28;20308;-69
2021/12/02 00:18:19;;;;;;;0.77;0.60;;;;;;;;;;5105847;28;20326;-69
2021/12/02 00:23:34;;;;;;;0.60;0.47;;;;;;;;;;5102720;28;20408;-70
2021/12/02 00:26:01;;;;;;;0.80;0.50;;;;;;;;;;5088196;28;20185;-70
2021/12/02 00:28:29;;;;;;;1.08;0.55;;;;;;;;;;5085619;28;20203;-70
2021/12/02 00:30:56;;;;;;;0.40;0.40;;;;;;;;;;5085171;28;20204;-70
2021/12/02 00:33:24;;;;;;;0.43;0.43;;;;;;;;;;5084977;28;20392;-70
2021/12/02 00:35:51;;;;;;;0.40;0.40;;;;;;;;;;5099931;28;20508;-69
2021/12/02 00:38:18;;;;;;;1.27;0.50;;;;;;;;;;5099611;28;20219;-70
2021/12/02 00:40:45;;;;;;;2.08;0.43;;;;;;;;;;5085396;28;20201;-70
2021/12/02 00:43:12;;;;;;;0.50;0.50;;;;;;;;;;5084773;28;20404;-70
2021/12/02 00:45:41;;;;;;;0.30;0.30;;;;;;;;;;5097648;28;20215;-69
2021/12/02 00:48:08;;;;;;;0.75;0.43;;;;;;;;;;5105146;28;20526;-69
2021/12/02 00:50:35;;;;;;;0.95;0.40;;;;;;;;;;5105197;28;20235;-69
2021/12/02 00:53:02;;;;;;;1.50;0.40;;;;;;;;;;5104863;28;20196;-69
2021/12/02 00:55:28;;;;;;;0.25;0.20;;;;;;;;;;5092964;28;20348;-70
2021/12/02 00:57:56;;;;;;;0.30;0.30;;;;;;;;;;5084588;28;20204;-70
2021/12/02 01:00:23;;;;;;;0.40;0.40;;;;;;;;;;5084942;28;20234;-70
2021/12/02 01:02:51;;;;;;;0.20;0.20;;;;;;;;;;5083581;28;20188;-70
2021/12/02 01:05:18;;;;;;;0.40;0.40;;;;;;;;;;5093970;28;20191;-70
2021/12/02 01:07:44;;;;;;;0.40;0.40;;;;;;;;;;5104546;28;20226;-70
2021/12/02 01:10:10;;;;;;;0.40;0.40;;;;;;;;;;5104860;28;20202;-69
2021/12/02 01:12:37;;;;;;;0.20;0.20;;;;;;;;;;5104082;28;20199;-70
2021/12/02 01:15:04;;;;;;;0.20;0.20;;;;;;;;;;5096419;28;20196;-69
2021/12/02 01:17:30;;;;;;;0.30;0.30;;;;;;;;;;5084526;28;20426;-70
2021/12/02 01:19:58;;;;;;;0.70;0.30;;;;;;;;;;5084106;28;20196;-70
2021/12/02 01:22:25;;;;;;;0.40;0.40;;;;;;;;;;5084279;28;20389;-70
2021/12/02 01:24:52;;;;;;;0.30;0.30;;;;;;;;;;5089652;28;20398;-70
2021/12/02 01:27:20;;;;;;;0.28;0.28;;;;;;;;;;5104094;28;20217;-69
2021/12/02 01:29:48;;;;;;;0.30;0.30;;;;;;;;;;5104133;28;20218;-70
2021/12/02 01:32:16;;;;;;;0.22;0.22;;;;;;;;;;5102839;28;20196;-70
2021/12/02 01:34:44;;;;;;;0.55;0.38;;;;;;;;;;5083570;28;20193;-69
2021/12/02 01:37:12;;;;;;;1.27;0.30;;;;;;;;;;5083478;28;20211;-70
2021/12/02 01:39:38;;;;;;;0.28;0.28;;;;;;;;;;5083890;28;20196;-70
2021/12/02 01:42:08;;;;;;;0.40;0.40;;;;;;;;;;5083784;28;20230;-70
2021/12/02 01:44:39;;;;;;;0.45;0.30;;;;;;;;;;5083932;28;20421;-69
2021/12/02 01:47:11;;;;;;;2.28;0.30;;;;;;;;;;5083735;28;20349;-69
2021/12/02 01:49:40;;;;;;;0.80;0.57;;;;;;;;;;5083600;28;20371;-69
2021/12/02 01:52:10;;;;;;;0.30;0.30;;;;;;;;;;5083623;28;20496;-68
2021/12/02 01:54:43;;;;;;;1.55;0.32;;;;;;;;;;5083512;28;20192;-70
2021/12/02 01:57:13;;;;;;;0.82;0.30;;;;;;;;;;5083300;28;20207;-70
2021/12/02 01:59:40;;;;;;;0.30;0.30;;;;;;;;;;5083489;28;20196;-69
2021/12/02 02:02:07;;;;;;;0.30;0.30;;;;;;;;;;5100441;28;20196;-72
2021/12/02 02:04:34;;;;;;;0.30;0.30;;;;;;;;;;5083853;28;20212;-69
2021/12/02 02:07:01;;;;;;;0.25;0.25;;;;;;;;;;5082915;28;20204;-69
2021/12/02 02:09:28;;;;;;;0.82;0.50;;;;;;;;;;5083160;28;20196;-69
2021/12/02 02:11:56;;;;;;;1.45;0.28;;;;;;;;;;5083344;28;20430;-69
2021/12/02 02:14:24;;;;;;;0.30;0.30;;;;;;;;;;5100391;28;20199;-69
2021/12/02 02:16:51;;;;;;;2.25;0.95;;;;;;;;;;5103343;28;20196;-69
2021/12/02 02:19:18;;;;;;;0.30;0.30;;;;;;;;;;5103264;28;20196;-69
2021/12/02 02:21:46;;;;;;;0.30;0.30;;;;;;;;;;5103487;28;20368;-69
2021/12/02 02:24:14;;;;;;;0.38;0.30;;;;;;;;;;5088465;28;20220;-69
2021/12/02 02:26:41;;;;;;;1.00;0.60;;;;;;;;;;5083035;28;20250;-69
2021/12/02 02:29:09;;;;;;;1.95;0.52;;;;;;;;;;5083518;28;20192;-69
2021/12/02 02:31:37;;;;;;;1.67;0.50;;;;;;;;;;5083886;28;20197;-69
2021/12/02 02:34:03;;;;;;;1.05;0.47;;;;;;;;;;5095605;28;20222;-69
2021/12/02 02:36:36;;;;;;;1.40;0.52;;;;;;;;;;5103975;28;20196;-69
2021/12/02 02:39:05;;;;;;;0.50;0.50;;;;;;;;;;5089764;28;20227;-69
2021/12/02 02:41:34;;;;;;;0.80;0.30;;;;;;;;;;5083740;28;20196;-69
2021/12/02 02:44:01;;;;;;;1.33;0.50;;;;;;;;;;5094403;28;20215;-69
2021/12/02 02:46:28;;;;;;;0.40;0.40;;;;;;;;;;5103328;28;20223;-69
2021/12/02 02:48:55;;;;;;;0.55;0.40;;;;;;;;;;5103246;28;20192;-69
2021/12/02 02:51:21;;;;;;;3.40;0.50;;;;;;;;;;5103317;28;20203;-70
2021/12/02 02:53:50;;;;;;;0.73;0.30;;;;;;;;;;5093709;28;20485;-69
2021/12/02 02:56:19;;;;;;;1.27;0.50;;;;;;;;;;5088230;28;20187;-69
2021/12/02 02:59:03;;;;;;;0.68;0.50;;;;;;;;;;5102779;28;20219;-69
2021/12/02 03:01:43;;;;;;;2.53;0.40;;;;;;;;;;5103272;28;20188;-69
2021/12/02 03:04:15;;;;;;;0.70;0.47;;;;;;;;;;5090981;28;20250;-69
2021/12/02 03:06:49;;;;;;;1.35;0.50;;;;;;;;;;5082337;28;20204;-69
2021/12/02 03:09:22;;;;;;;0.85;0.65;;;;;;;;;;5082613;28;20243;-69
2021/12/02 03:11:53;;;;;;;3.75;0.50;;;;;;;;;;5082759;28;20184;-69
2021/12/02 03:14:23;;;;;;;1.77;0.80;;;;;;;;;;5095538;28;20199;-69
2021/12/02 03:16:48;;;;;;;0.68;0.60;;;;;;;;;;5102363;28;20241;-69
2021/12/02 03:19:22;;;;;;;2.17;0.45;;;;;;;;;;5102892;28;20180;-70
2021/12/02 03:21:48;;;;;;;0.95;0.40;;;;;;;;;;5102649;28;20255;-69
2021/12/02 03:24:15;;;;;;;1.65;0.50;;;;;;;;;;5091168;28;20216;-69
2021/12/02 03:26:41;;;;;;;0.55;0.50;;;;;;;;;;5086443;28;20504;-69
2021/12/02 03:29:09;;;;;;;2.80;0.60;;;;;;;;;;5086582;28;20204;-69
2021/12/02 03:31:35;;;;;;;1.67;0.60;;;;;;;;;;5086816;28;20491;-69
2021/12/02 03:34:03;;;;;;;0.50;0.50;;;;;;;;;;5096068;28;20192;-69
2021/12/02 03:36:30;;;;;;;1.80;0.50;;;;;;;;;;5106452;28;20279;-69
2021/12/02 03:38:56;;;;;;;0.60;0.40;;;;;;;;;;5106537;28;20195;-69
2021/12/02 03:41:23;;;;;;;1.00;0.50;;;;;;;;;;5106025;28;20207;-69
2021/12/02 03:43:50;;;;;;;1.73;0.43;;;;;;;;;;5098035;28;20470;-69
2021/12/02 03:46:18;;;;;;;0.32;0.32;;;;;;;;;;5085441;28;20232;-69
2021/12/02 03:48:45;;;;;;;0.50;0.50;;;;;;;;;;5085393;28;20212;-69
2021/12/02 03:51:12;;;;;;;1.17;0.60;;;;;;;;;;5086405;28;20198;-69
2021/12/02 03:53:39;;;;;;;0.45;0.43;;;;;;;;;;5093601;28;20203;-69
2021/12/02 03:56:07;;;;;;;0.73;0.40;;;;;;;;;;5106175;28;20203;-69
2021/12/02 03:58:34;;;;;;;1.63;1.63;;;;;;;;;;5106068;28;20223;-69
2021/12/02 04:01:01;;;;;;;0.75;0.75;;;;;;;;;;5105836;28;20496;-69
2021/12/02 04:03:28;;;;;;;0.50;0.50;;;;;;;;;;5085734;28;20201;-69
2021/12/02 04:05:55;;;;;;;0.80;0.80;;;;;;;;;;5085299;28;20220;-69
2021/12/02 04:08:28;;;;;;;2.20;0.50;;;;;;;;;;5085918;28;20192;-69
2021/12/02 04:11:00;;;;;;;0.70;0.70;;;;;;;;;;5086143;28;20413;-69
2021/12/02 04:13:29;;;;;;;0.50;0.50;;;;;;;;;;5105054;28;20202;-69
2021/12/02 04:16:00;;;;;;;0.50;0.50;;;;;;;;;;5105518;28;20484;-69
2021/12/02 04:18:27;;;;;;;0.40;0.40;;;;;;;;;;5106086;28;20312;-69
2021/12/02 04:20:54;;;;;;;0.50;0.50;;;;;;;;;;5087906;28;20200;-69
2021/12/02 04:23:21;;;;;;;1.05;0.40;;;;;;;;;;5104319;28;20188;-69
2021/12/02 04:25:47;;;;;;;2.05;0.75;;;;;;;;;;5105098;28;20216;-69
2021/12/02 04:28:14;;;;;;;0.80;0.50;;;;;;;;;;5105834;28;20321;-69
2021/12/02 04:30:40;;;;;;;1.52;0.40;;;;;;;;;;5105579;28;20196;-69
2021/12/02 04:33:07;;;;;;;0.68;0.43;;;;;;;;;;5089057;28;20210;-69
2021/12/02 04:35:33;;;;;;;0.40;0.40;;;;;;;;;;5084079;28;20200;-69
2021/12/02 04:38:01;;;;;;;1.25;0.73;;;;;;;;;;5084592;28;20204;-69
2021/12/02 04:40:27;;;;;;;4.30;3.50;;;;;;;;;;5085290;28;20196;-69
2021/12/02 04:42:54;;;;;;;1.02;0.70;;;;;;;;;;5099193;28;20267;-69
2021/12/02 04:45:20;;;;;;;0.55;0.50;;;;;;;;;;5105426;28;20224;-69
2021/12/02 04:47:46;;;;;;;1.67;0.82;;;;;;;;;;5096522;28;20636;-69
2021/12/02 04:50:13;;;;;;;2.63;1.20;;;;;;;;;;5085204;28;20203;-69
2021/12/02 04:52:40;;;;;;;0.50;0.50;;;;;;;;;;5096918;28;20191;-69
2021/12/02 04:55:08;;;;;;;1.80;0.90;;;;;;;;;;5105018;28;20229;-69
2021/12/02 04:57:35;;;;;;;0.82;0.57;;;;;;;;;;5104752;28;20203;-69
2021/12/02 05:00:01;;;;;;;2.03;0.60;;;;;;;;;;5105266;28;20200;-69
2021/12/02 05:02:28;;;;;;;1.35;0.60;;;;;;;;;;5104697;28;20488;-69
2021/12/02 05:04:54;;;;;;;0.60;0.57;;;;;;;;;;5090127;28;20216;-69
2021/12/02 05:07:20;;;;;;;1.10;0.60;;;;;;;;;;5084931;28;20227;-69
2021/12/02 05:09:47;;;;;;;0.63;0.63;;;;;;;;;;5084702;28;20614;-69
2021/12/02 05:12:15;;;;;;;1.02;0.70;;;;;;;;;;5084580;28;20196;-69
2021/12/02 05:14:41;;;;;;;1.17;0.80;;;;;;;;;;5084472;28;20192;-69
2021/12/02 05:17:07;;;;;;;2.63;0.73;;;;;;;;;;5104326;28;20211;-69
2021/12/02 05:19:34;;;;;;;0.73;0.73;;;;;;;;;;5104754;28;20200;-69
2021/12/02 05:22:00;;;;;;;0.95;0.60;;;;;;;;;;5105054;28;20195;-69
2021/12/02 05:24:27;;;;;;;1.17;0.90;;;;;;;;;;5104516;28;20249;-68
2021/12/02 05:26:53;;;;;;;0.73;0.73;;;;;;;;;;5104793;28;20551;-69
2021/12/02 05:29:21;;;;;;;0.73;0.57;;;;;;;;;;5104349;28;20211;-69
2021/12/02 05:31:47;;;;;;;0.90;0.60;;;;;;;;;;5104109;28;20202;-69
2021/12/02 05:34:14;;;;;;;1.77;0.90;;;;;;;;;;5094841;28;20492;-70
2021/12/02 05:36:40;;;;;;;1.45;1.02;;;;;;;;;;5083808;28;20203;-70
2021/12/02 05:39:07;;;;;;;1.25;1.15;;;;;;;;;;5084395;28;20205;-70
2021/12/02 05:41:33;;;;;;;2.97;1.45;;;;;;;;;;5089548;28;20200;-70
2021/12/02 05:44:00;;;;;;;1.73;0.90;;;;;;;;;;5104110;28;20390;-70
2021/12/02 05:46:28;;;;;;;1.83;0.90;;;;;;;;;;5104114;28;20227;-70
2021/12/02 05:48:55;;;;;;;1.90;1.17;;;;;;;;;;5085864;28;20196;-69
2021/12/02 05:51:21;;;;;;;1.60;0.88;;;;;;;;;;5083677;28;20212;-69
2021/12/02 05:53:47;;;;;;;1.00;0.70;;;;;;;;;;5083664;28;20211;-70
2021/12/02 05:56:14;;;;;;;2.25;2.00;;;;;;;;;;5083863;28;20200;-69
2021/12/02 05:58:40;;;;;;;1.13;0.70;;;;;;;;;;5084037;28;20208;-69
2021/12/02 06:01:07;;;;;;;1.45;0.80;;;;;;;;;;5088178;28;20211;-69
2021/12/02 06:03:36;;;;;;;3.30;0.85;;;;;;;;;;5103303;28;20196;-68
2021/12/02 06:06:03;;;;;;;1.85;0.70;;;;;;;;;;5102889;28;20239;-68
2021/12/02 06:08:30;;;;;;;3.70;0.93;;;;;;;;;;5103040;28;20217;-68
2021/12/02 06:10:56;;;;;;;0.80;0.80;;;;;;;;;;5085888;28;20403;-69
2021/12/02 06:13:24;;;;;;;0.80;0.65;;;;;;;;;;5083033;28;20390;-68
2021/12/02 06:15:51;;;;;;;0.60;0.60;;;;;;;;;;5095090;28;20230;-68
2021/12/02 06:18:17;;;;;;;0.60;0.60;;;;;;;;;;5102903;28;20191;-68
2021/12/02 06:20:50;;;;;;;1.52;0.50;;;;;;;;;;5103145;28;20394;-67
2021/12/02 06:23:17;;;;;;;0.55;0.55;;;;;;;;;;5103152;28;20246;-66
2021/12/02 06:25:46;;;;;;;1.65;0.40;;;;;;;;;;5102365;28;20216;-69
2021/12/02 06:28:13;;;;;;;0.55;0.52;;;;;;;;;;5101076;28;20233;-66
2021/12/02 06:30:40;;;;;;;0.40;0.40;;;;;;;;;;5082583;28;20370;-67
2021/12/02 06:33:06;;;;;;;1.20;0.40;;;;;;;;;;5080475;28;20218;-70
2021/12/02 06:35:33;;;;;;;0.32;0.32;;;;;;;;;;5094413;28;20508;-59
2021/12/02 06:38:00;;;;;;;0.95;0.60;;;;;;;;;;5102295;28;20199;-59
2021/12/02 06:40:27;;;;;;;0.88;0.60;;;;;;;;;;5085680;28;20229;-60
2021/12/02 06:42:53;;;;;;;0.55;0.50;;;;;;;;;;5078416;28;20285;-59
2021/12/02 06:45:20;;;;;;;0.40;0.40;;;;;;;;;;5078152;28;20232;-54
2021/12/02 06:47:46;;;;;;;0.40;0.40;;;;;;;;;;5094730;28;20234;-55
2021/12/02 06:50:16;;;;;;;0.60;0.60;;;;;;;;;;5095633;28;20207;-55
2021/12/02 06:52:43;;;;;;;1.05;0.40;;;;;;;;;;5095824;28;20208;-55
2021/12/02 06:55:11;;;;;;;0.50;0.50;;;;;;;;;;5075206;28;20244;-55
2021/12/02 06:57:38;;;;;;;1.35;0.40;;;;;;;;;;5092934;28;20538;-55
2021/12/02 07:00:08;;;;;;;1.45;0.60;;;;;;;;;;5097561;28;20214;-54
2021/12/02 07:02:34;;;;;;;2.60;0.52;;;;;;;;;;5098103;28;20230;-53
2021/12/02 07:05:01;;;;;;;0.63;0.40;;;;;;;;;;5098918;28;20230;-53
2021/12/02 07:07:31;;;;;;;3.65;0.70;;;;;;;;;;5084695;28;20208;-53
2021/12/02 07:09:59;;;;;;;2.15;0.55;;;;;;;;;;5079910;28;20208;-54
2021/12/02 07:12:31;;;;;;;1.10;0.70;;;;;;;;;;5079834;28;20465;-55
2021/12/02 07:14:58;;;;;;;0.40;0.40;;;;;;;;;;5079712;28;20205;-59
2021/12/02 07:17:25;;;;;;;0.43;0.43;;;;;;;;;;5079767;28;20258;-60
2021/12/02 07:19:51;;;;;;;0.57;0.57;;;;;;;;;;5079538;28;20247;-58
2021/12/02 07:22:17;;;;;;;0.75;0.50;;;;;;;;;;5079698;28;20243;-58
2021/12/02 07:24:44;;;;;;;3.10;0.60;;;;;;;;;;5078611;28;20247;-59
2021/12/02 07:27:10;;;;;;;2.50;1.00;;;;;;;;;;5096672;28;20223;-59
2021/12/02 07:29:39;;;;;;;1.85;0.73;;;;;;;;;;5099669;28;20560;-54
2021/12/02 07:32:06;;;;;;;0.93;0.93;;;;;;;;;;5087386;28;20205;-56
2021/12/02 07:34:34;;;;;;;52.13;6.38;;;;;;;;;;5079064;28;20204;-55
2021/12/02 07:37:00;;;;;;;28.50;5.13;;;;;;;;;;5079036;28;20205;-55
2021/12/02 07:39:27;;;;;;;43.28;5.82;;;;;;;;;;5079217;28;20457;-53
2021/12/02 07:41:54;;;;;;;12.43;2.70;;;;;;;;;;5089621;28;20253;-54
2021/12/02 07:44:20;;;;;;;15.90;2.65;;;;;;;;;;5099132;28;20208;-55
2021/12/02 07:46:48;;;;;;;25.20;4.68;;;;;;;;;;5098661;28;20216;-55
2021/12/02 07:49:15;;;;;;;21.27;4.35;;;;;;;;;;5099640;28;20215;-56
2021/12/02 07:51:43;;;;;;;3.50;1.63;;;;;;;;;;5092192;28;20211;-53
2021/12/02 07:54:11;;;;;;;2.50;1.33;;;;;;;;;;5093029;28;20278;-54
2021/12/02 07:56:37;;;;;;;3.70;1.38;;;;;;;;;;5101564;28;20204;-56
2021/12/02 07:59:05;;;;;;;3.33;1.48;;;;;;;;;;5101639;28;20196;-60
2021/12/02 08:01:34;;;;;;;1.38;1.10;;;;;;;;;;5101962;28;20254;-59
2021/12/02 08:04:02;;;;;;;1.33;1.30;;;;;;;;;;5102169;28;20200;-58
2021/12/02 08:06:28;;;;;;;4.97;1.30;;;;;;;;;;5091147;28;20228;-59
2021/12/02 08:08:56;;;;;;;8.55;6.32;;;;;;;;;;5082269;28;20359;-59
2021/12/02 08:11:22;;;;;;;11.38;8.30;;;;;;;;;;5095925;28;20358;-59
2021/12/02 08:13:51;;;;;;;4.70;4.30;;;;;;;;;;5083747;28;20204;-59
2021/12/02 08:16:18;;;;;;;4.25;2.85;;;;;;;;;;5083292;28;20230;-59
2021/12/02 08:18:45;;;;;;;1.65;1.50;;;;;;;;;;5100301;28;20506;-59
2021/12/02 08:21:13;;;;;;;1.80;1.30;;;;;;;;;;5092644;28;20215;-59
2021/12/02 08:23:39;;;;;;;3.75;1.08;;;;;;;;;;5083215;28;20210;-60
2021/12/02 08:26:05;;;;;;;4.68;1.30;;;;;;;;;;5100736;28;20224;-58
2021/12/02 08:28:32;;;;;;;3.65;1.45;;;;;;;;;;5091070;28;20203;-58
2021/12/02 08:30:58;;;;;;;1.40;1.23;;;;;;;;;;5101058;28;20207;-58
2021/12/02 08:33:25;;;;;;;1.30;1.20;;;;;;;;;;5101081;28;20199;-59
2021/12/02 08:35:51;;;;;;;1.83;1.73;;;;;;;;;;5099976;28;20195;-59
2021/12/02 08:38:22;;;;;;;1.70;1.60;;;;;;;;;;5100427;28;20211;-60
2021/12/02 08:40:49;;;;;;;1.58;1.58;;;;;;;;;;5101131;28;20211;-59
2021/12/02 08:43:17;;;;;;;2.50;1.42;;;;;;;;;;5080638;28;20235;-59
2021/12/02 08:45:44;;;;;;;4.13;1.50;;;;;;;;;;5090094;28;20512;-54
2021/12/02 08:48:11;;;;;;;2.13;1.63;;;;;;;;;;5100910;28;20212;-55
2021/12/02 08:50:38;;;;;;;1.60;1.40;;;;;;;;;;5100271;28;20222;-55
2021/12/02 08:53:06;;;;;;;2.00;0.80;;;;;;;;;;5100028;28;20477;-53
2021/12/02 08:55:34;;;;;;;0.95;0.70;;;;;;;;;;5091334;28;20197;-56
2021/12/02 08:58:03;;;;;;;3.38;0.98;;;;;;;;;;5080457;28;20384;-56
2021/12/02 09:00:33;;;;;;;1.52;0.98;;;;;;;;;;5087659;28;20437;-53
2021/12/02 09:03:00;;;;;;;1.27;1.17;;;;;;;;;;5100387;28;20204;-56
2021/12/02 09:05:27;;;;;;;1.05;1.02;;;;;;;;;;5092323;28;20448;-57
2021/12/02 09:07:53;;;;;;;0.80;0.80;;;;;;;;;;5081338;28;20577;-54
2021/12/02 09:10:21;;;;;;;0.90;0.82;;;;;;;;;;5093592;28;20200;-55
2021/12/02 09:12:49;;;;;;;0.70;0.70;;;;;;;;;;5100488;28;20266;-54
2021/12/02 09:15:16;;;;;;;1.85;0.90;;;;;;;;;;5099720;28;20206;-55
2021/12/02 09:17:43;;;;;;;7.65;1.60;;;;;;;;;;5100816;28;20211;-55
2021/12/02 09:20:10;;;;;;;10.23;2.88;;;;;;;;;;5100424;28;20204;-54
2021/12/02 09:22:37;;;;;;;1.48;0.88;;;;;;;;;;5099538;28;20210;-54
2021/12/02 09:25:04;;;;;;;2.45;1.15;;;;;;;;;;5087672;28;20200;-54
2021/12/02 09:27:30;;;;;;;1.90;1.10;;;;;;;;;;5090368;28;20216;-55
2021/12/02 09:29:58;;;;;;;3.05;0.73;;;;;;;;;;5098694;28;20223;-54
2021/12/02 09:32:25;;;;;;;0.98;0.98;;;;;;;;;;5099335;28;20257;-55
2021/12/02 09:34:51;;;;;;;1.00;0.68;;;;;;;;;;5097786;28;20204;-56
2021/12/02 09:37:19;;;;;;;1.67;1.67;;;;;;;;;;5094366;28;20211;-56
2021/12/02 09:39:45;;;;;;;5.40;0.75;;;;;;;;;;5088478;28;20199;-56
2021/12/02 09:42:13;;;;;;;0.80;0.80;;;;;;;;;;5100287;28;20200;-60
2021/12/02 09:44:40;;;;;;;0.68;0.68;;;;;;;;;;5103212;28;20731;-60
2021/12/02 09:47:08;;;;;;;1.48;0.90;;;;;;;;;;5098081;28;20216;-60
2021/12/02 09:49:34;;;;;;;0.60;0.60;;;;;;;;;;5083666;28;20204;-60
2021/12/02 09:52:02;;;;;;;0.70;0.70;;;;;;;;;;5082728;28;20434;-60
2021/12/02 09:54:32;;;;;;;0.55;0.52;;;;;;;;;;5081710;28;20204;-61
2021/12/02 09:57:01;;;;;;;1.40;0.70;;;;;;;;;;5080867;28;20283;-60
2021/12/02 09:59:29;;;;;;;1.20;0.60;;;;;;;;;;5100498;28;20203;-60
2021/12/02 10:01:59;;;;;;;0.63;0.45;;;;;;;;;;5101537;28;20740;-60
2021/12/02 10:04:27;;;;;;;0.60;0.60;;;;;;;;;;5084961;28;20212;-60
2021/12/02 10:07:04;;;;;;;0.60;0.60;;;;;;;;;;5080373;28;20231;-60
2021/12/02 10:09:38;;;;;;;0.52;0.43;;;;;;;;;;5079890;28;20204;-61
2021/12/02 10:12:13;;;;;;;0.70;0.70;;;;;;;;;;5079232;28;20192;-60
2021/12/02 10:14:42;;;;;;;0.80;0.63;;;;;;;;;;5080796;28;20196;-61
2021/12/02 10:17:13;;;;;;;0.80;0.70;;;;;;;;;;5081972;28;20200;-60
2021/12/02 10:19:58;;;;;;;0.85;0.70;;;;;;;;;;5082240;28;20257;-60
2021/12/02 10:22:25;;;;;;;0.75;0.75;;;;;;;;;;5079905;28;20211;-60
2021/12/02 10:24:52;;;;;;;2.35;0.50;;;;;;;;;;5080102;28;20204;-60
2021/12/02 10:27:18;;;;;;;2.33;0.63;;;;;;;;;;5081796;28;20262;-60
2021/12/02 10:29:47;;;;;;;0.70;0.70;;;;;;;;;;5083517;28;20204;-59
2021/12/02 10:32:16;;;;;;;0.88;0.70;;;;;;;;;;5080515;28;20281;-60
2021/12/02 10:34:52;;;;;;;1.30;0.77;;;;;;;;;;5079865;28;20204;-60
2021/12/02 10:37:20;;;;;;;0.73;0.73;;;;;;;;;;5080292;28;20222;-60
2021/12/02 10:39:56;;;;;;;0.57;0.57;;;;;;;;;;5094573;28;20204;-60
2021/12/02 10:42:23;;;;;;;1.00;0.90;;;;;;;;;;5097644;28;20268;-59
2021/12/02 10:44:50;;;;;;;1.75;1.20;;;;;;;;;;5100091;28;20224;-59
2021/12/02 10:47:19;;;;;;;1.02;1.02;;;;;;;;;;5080823;28;20231;-59
2021/12/02 10:49:47;;;;;;;4.68;1.42;;;;;;;;;;5080636;28;20207;-60
2021/12/02 10:52:16;;;;;;;2.25;1.20;;;;;;;;;;5080927;28;20200;-60
2021/12/02 10:54:44;;;;;;;1.00;1.00;;;;;;;;;;5097441;28;20204;-60
2021/12/02 10:57:11;;;;;;;2.35;1.20;;;;;;;;;;5090834;28;20200;-59
2021/12/02 10:59:41;;;;;;;2.03;1.92;;;;;;;;;;5081525;28;20503;-60
2021/12/02 11:02:08;;;;;;;2.15;2.05;;;;;;;;;;5099910;28;20203;-60
2021/12/02 11:04:36;;;;;;;1.83;1.70;;;;;;;;;;5097349;28;20211;-62
2021/12/02 11:07:05;;;;;;;2.20;1.95;;;;;;;;;;5096570;28;20487;-60
2021/12/02 11:09:34;;;;;;;1.75;1.65;;;;;;;;;;5097999;28;20535;-60
2021/12/02 11:12:14;;;;;;;1.20;1.20;;;;;;;;;;5096616;28;20203;-60
2021/12/02 11:14:42;;;;;;;1.40;1.20;;;;;;;;;;5080402;28;20415;-60
2021/12/02 11:17:10;;;;;;;1.00;1.00;;;;;;;;;;5077295;28;20204;-60
2021/12/02 11:19:36;;;;;;;1.02;1.02;;;;;;;;;;5077469;28;20215;-60
2021/12/02 11:22:07;;;;;;;2.38;2.28;;;;;;;;;;5077690;28;20231;-61
2021/12/02 11:24:35;;;;;;;2.13;1.90;;;;;;;;;;5091171;28;20208;-60
2021/12/02 11:27:08;;;;;;;1.65;1.55;;;;;;;;;;5097057;28;20543;-60
2021/12/02 11:29:48;;;;;;;2.10;2.00;;;;;;;;;;5098212;28;20223;-59
2021/12/02 11:32:25;;;;;;;1.35;1.33;;;;;;;;;;5096594;28;20200;-60
2021/12/02 11:34:58;;;;;;;1.48;1.45;;;;;;;;;;5096614;28;20214;-59
2021/12/02 11:37:26;;;;;;;0.65;0.60;;;;;;;;;;5097944;28;20204;-60
2021/12/02 11:39:54;;;;;;;3.58;0.80;;;;;;;;;;5098857;28;20208;-58
2021/12/02 11:42:21;;;;;;;1.13;1.13;;;;;;;;;;5097538;28;20246;-60
2021/12/02 11:44:47;;;;;;;0.80;0.80;;;;;;;;;;5080528;28;20224;-60
2021/12/02 11:47:13;;;;;;;1.20;0.77;;;;;;;;;;5080098;28;20224;-60
2021/12/02 11:49:41;;;;;;;1.67;0.85;;;;;;;;;;5083412;28;20211;-60
2021/12/02 11:52:08;;;;;;;0.80;0.80;;;;;;;;;;5094516;28;20227;-60
2021/12/02 11:54:36;;;;;;;0.98;0.95;;;;;;;;;;5078805;28;20219;-60
2021/12/02 11:57:07;;;;;;;3.72;0.93;;;;;;;;;;5080027;28;20528;-60
2021/12/02 11:59:34;;;;;;;0.90;0.90;;;;;;;;;;5081425;28;20280;-60
2021/12/02 12:02:01;;;;;;;1.02;1.02;;;;;;;;;;5080987;28;20203;-60
2021/12/02 12:04:28;;;;;;;5.28;3.25;;;;;;;;;;5084895;28;20447;-60
2021/12/02 12:06:55;;;;;;;1.38;1.38;;;;;;;;;;5101070;28;20574;-58
2021/12/02 12:09:22;;;;;;;1.52;1.42;;;;;;;;;;5101906;28;20227;-60
2021/12/02 12:11:51;;;;;;;1.10;1.10;;;;;;;;;;5099579;28;20422;-57
2021/12/02 12:14:33;;;;;;;1.65;1.65;;;;;;;;;;5080358;28;20208;-59
2021/12/02 12:17:04;;;;;;;1.85;1.48;;;;;;;;;;5085632;28;20211;-59
2021/12/02 12:19:32;;;;;;;1.10;1.10;;;;;;;;;;5100691;28;20211;-60
2021/12/02 12:22:01;;;;;;;1.17;1.17;;;;;;;;;;5096992;28;20206;-61
2021/12/02 12:24:40;;;;;;;1.20;1.10;;;;;;;;;;5079064;28;20671;-60
2021/12/02 12:27:11;;;;;;;1.88;1.77;;;;;;;;;;5078793;28;20224;-59
2021/12/02 12:29:39;;;;;;;1.88;1.77;;;;;;;;;;5094786;28;20208;-60
2021/12/02 12:32:16;;;;;;;1.63;1.63;;;;;;;;;;5098860;28;20208;-60
2021/12/02 12:34:48;;;;;;;1.67;1.60;;;;;;;;;;5096591;28;20274;-60
2021/12/02 12:37:46;;;;;;;1.40;1.40;;;;;;;;;;5078793;28;20276;-61
2021/12/02 12:40:14;;;;;;;1.40;1.38;;;;;;;;;;5078426;28;20927;-60
2021/12/02 12:42:43;;;;;;;2.67;1.27;;;;;;;;;;5078447;28;20231;-61
2021/12/02 12:45:13;;;;;;;2.20;2.10;;;;;;;;;;5078818;28;20427;-60
2021/12/02 12:47:46;;;;;;;2.10;2.00;;;;;;;;;;5080266;28;20223;-61
2021/12/02 12:50:23;;;;;;;1.60;1.50;;;;;;;;;;5079599;28;20579;-60
2021/12/02 12:52:52;;;;;;;1.70;1.70;;;;;;;;;;5080731;28;20239;-60
2021/12/02 12:55:19;;;;;;;2.13;1.70;;;;;;;;;;5078899;28;20212;-59
2021/12/02 12:58:04;;;;;;;3.92;3.55;;;;;;;;;;5078258;28;20415;-59
2021/12/02 13:00:39;;;;;;;3.50;3.30;;;;;;;;;;5079135;28;20520;-59
2021/12/02 13:03:09;;;;;;;3.45;3.08;;;;;;;;;;5090290;28;20207;-59
2021/12/02 13:05:44;;;;;;;2.25;2.13;;;;;;;;;;5097883;28;20215;-59
2021/12/02 13:08:18;;;;;;;2.20;2.08;;;;;;;;;;5088242;28;20219;-59
2021/12/02 13:10:55;;;;;;;4.10;2.50;;;;;;;;;;5079349;28;20251;-59
2021/12/02 13:13:26;;;;;;;2.75;2.35;;;;;;;;;;5079702;28;20208;-60
2021/12/02 13:15:54;;;;;;;4.13;2.55;;;;;;;;;;5080849;28;20204;-58
2021/12/02 13:18:31;;;;;;;2.58;2.20;;;;;;;;;;5085486;28;20223;-59
2021/12/02 13:20:58;;;;;;;2.20;2.10;;;;;;;;;;5080537;28;20275;-60
2021/12/02 13:23:28;;;;;;;2.97;1.95;;;;;;;;;;5078772;28;20627;-60
2021/12/02 13:25:58;;;;;;;2.92;1.83;;;;;;;;;;5077642;28;20246;-59
2021/12/02 13:28:27;;;;;;;2.70;1.63;;;;;;;;;;5084976;28;20226;-59
2021/12/02 13:30:55;;;;;;;2.17;1.85;;;;;;;;;;5100484;28;20208;-60
2021/12/02 13:33:31;;;;;;;2.42;2.25;;;;;;;;;;5081720;28;20209;-60
2021/12/02 13:35:58;;;;;;;2.83;1.80;;;;;;;;;;5077472;28;20250;-60
2021/12/02 13:38:24;;;;;;;2.40;2.30;;;;;;;;;;5079415;28;20204;-61
2021/12/02 13:40:50;;;;;;;2.47;2.38;;;;;;;;;;5091969;28;20558;-60
2021/12/02 13:43:18;;;;;;;2.88;1.80;;;;;;;;;;5097545;28;20211;-60
2021/12/02 13:45:45;;;;;;;3.72;3.30;;;;;;;;;;5098078;28;20224;-58
2021/12/02 13:48:16;;;;;;;3.92;3.40;;;;;;;;;;5096368;28;20265;-59
2021/12/02 13:50:46;;;;;;;3.00;2.90;;;;;;;;;;5098976;28;20207;-58
2021/12/02 13:53:13;;;;;;;5.60;2.90;;;;;;;;;;5097427;28;20196;-59
2021/12/02 13:55:42;;;;;;;2.63;2.42;;;;;;;;;;5096361;28;20208;-60
2021/12/02 13:58:15;;;;;;;4.00;2.10;;;;;;;;;;5092780;28;20206;-58
2021/12/02 14:00:43;;;;;;;2.42;2.10;;;;;;;;;;5082208;28;20204;-60
2021/12/02 14:03:10;;;;;;;1.83;1.73;;;;;;;;;;5092701;28;20446;-59
2021/12/02 14:05:39;;;;;;;3.13;1.92;;;;;;;;;;5094339;28;20210;-59
2021/12/02 14:08:07;;;;;;;2.25;1.90;;;;;;;;;;5078086;28;20488;-59
2021/12/02 14:10:35;;;;;;;2.72;1.88;;;;;;;;;;5077105;28;20262;-59
2021/12/02 14:13:03;;;;;;;1.35;1.15;;;;;;;;;;5077836;28;20209;-60
2021/12/02 14:15:31;;;;;;;0.75;0.70;;;;;;;;;;5077499;28;20280;-60
2021/12/02 14:17:58;;;;;;;2.42;1.00;;;;;;;;;;5087551;28;20207;-60
2021/12/02 14:20:26;;;;;;;1.38;1.23;;;;;;;;;;5098872;28;20396;-60
2021/12/02 14:22:56;;;;;;;1.77;1.58;;;;;;;;;;5098885;28;20211;-61
2021/12/02 14:25:24;;;;;;;1.48;1.38;;;;;;;;;;5093583;28;20201;-60
2021/12/02 14:28:11;;;;;;;1.75;1.70;;;;;;;;;;5077530;28;20574;-61
2021/12/02 14:30:38;;;;;;;1.90;1.80;;;;;;;;;;5077004;28;20544;-60
2021/12/02 14:33:05;;;;;;;2.25;1.42;;;;;;;;;;5076398;28;20209;-60
2021/12/02 14:35:41;;;;;;;1.90;1.70;;;;;;;;;;5077430;28;20200;-60
2021/12/02 14:38:17;;;;;;;1.45;1.35;;;;;;;;;;5087633;28;20195;-61
2021/12/02 14:40:45;;;;;;;2.63;2.03;;;;;;;;;;5096364;28;20203;-61
2021/12/02 14:43:19;;;;;;;1.20;1.20;;;;;;;;;;5097299;28;20208;-61
2021/12/02 14:45:45;;;;;;;1.60;1.60;;;;;;;;;;5090233;28;20220;-61
2021/12/02 14:48:26;;;;;;;8.55;4.60;;;;;;;;;;5089979;28;20220;-60
2021/12/02 14:51:00;;;;;;;1.98;1.20;;;;;;;;;;5087245;28;20222;-60
2021/12/02 14:53:28;;;;;;;1.40;1.30;;;;;;;;;;5092779;28;20231;-59